AFR1037 LJLJ-LFPG
Flight info
| Callsign | AFR1037 |
|---|---|
| Flight time | 1h 37m |
| Altitude | 34000 |
| Route | GIMIX DCT UMVEG DCT KPT L856 RAVED Y112 HOC DCT MOROK DCT PENDU DCT JAVVU DCT GIVRI DCT TINIL |
| Aircraft | E190/M-SDE3GILORVW/S |
Departure
| Time | 2026-05-08 16:47 |
|---|---|
| Airport | Ljubljana Jože Pučnik Airport (LJLJ) |
Arrival
| Time | 2026-05-08 18:25 |
|---|---|
| Airport | Charles de Gaulle International Airport (LFPG) |
| Time | Latitude | Longitude | Altitude | Speed | Heading |
|---|---|---|---|---|---|
| 2026-05-08 16:20 | 46.23002 | 14.45472 | 1263 ft | 0 kts | 37° |
| 2026-05-08 16:33 | 46.23001 | 14.45472 | 1263 ft | 0 kts | 37° |
| 2026-05-08 16:33 | 46.23000 | 14.45471 | 1263 ft | 0 kts | 37° |
| 2026-05-08 16:33 | 46.22991 | 14.45461 | 1262 ft | 2 kts | 39° |
| 2026-05-08 16:33 | 46.22979 | 14.45448 | 1262 ft | 2 kts | 38° |
| 2026-05-08 16:34 | 46.22968 | 14.45434 | 1262 ft | 2 kts | 38° |
| 2026-05-08 16:34 | 46.22959 | 14.45422 | 1262 ft | 2 kts | 66° |
| 2026-05-08 16:34 | 46.22958 | 14.45402 | 1262 ft | 2 kts | 115° |
| 2026-05-08 16:34 | 46.22967 | 14.45384 | 1262 ft | 2 kts | 127° |
| 2026-05-08 16:35 | 46.22970 | 14.45378 | 1262 ft | 0 kts | 126° |
| 2026-05-08 16:35 | 46.22970 | 14.45379 | 1262 ft | 0 kts | 126° |
| 2026-05-08 16:38 | 46.22969 | 14.45381 | 1262 ft | 1 kts | 126° |
| 2026-05-08 16:38 | 46.22960 | 14.45397 | 1262 ft | 2 kts | 126° |
| 2026-05-08 16:38 | 46.22946 | 14.45426 | 1261 ft | 4 kts | 126° |
| 2026-05-08 16:39 | 46.22926 | 14.45467 | 1261 ft | 5 kts | 125° |
| 2026-05-08 16:39 | 46.22898 | 14.45526 | 1259 ft | 8 kts | 126° |
| 2026-05-08 16:39 | 46.22854 | 14.45533 | 1259 ft | 7 kts | 223° |
| 2026-05-08 16:39 | 46.22827 | 14.45499 | 1259 ft | 0 kts | 218° |
| 2026-05-08 16:42 | 46.22823 | 14.45494 | 1259 ft | 1 kts | 219° |
| 2026-05-08 16:42 | 46.22794 | 14.45466 | 1259 ft | 7 kts | 204° |
| 2026-05-08 16:42 | 46.22740 | 14.45499 | 1257 ft | 11 kts | 129° |
| 2026-05-08 16:42 | 46.22676 | 14.45623 | 1254 ft | 18 kts | 126° |
| 2026-05-08 16:43 | 46.22592 | 14.45787 | 1250 ft | 21 kts | 126° |
| 2026-05-08 16:43 | 46.22498 | 14.45971 | 1245 ft | 24 kts | 127° |
| 2026-05-08 16:43 | 46.22391 | 14.46180 | 1237 ft | 27 kts | 126° |
| 2026-05-08 16:43 | 46.22274 | 14.46407 | 1231 ft | 29 kts | 127° |
| 2026-05-08 16:44 | 46.22153 | 14.46648 | 1224 ft | 29 kts | 126° |
| 2026-05-08 16:44 | 46.22029 | 14.46889 | 1217 ft | 31 kts | 127° |
| 2026-05-08 16:44 | 46.21898 | 14.47146 | 1211 ft | 32 kts | 126° |
| 2026-05-08 16:44 | 46.21762 | 14.47410 | 1205 ft | 24 kts | 126° |
| 2026-05-08 16:45 | 46.21684 | 14.47568 | 1202 ft | 16 kts | 123° |
| 2026-05-08 16:45 | 46.21597 | 14.47580 | 1201 ft | 14 kts | 218° |
| 2026-05-08 16:45 | 46.21529 | 14.47476 | 1202 ft | 13 kts | 249° |
| 2026-05-08 16:45 | 46.21533 | 14.47396 | 1203 ft | 0 kts | 304° |
| 2026-05-08 16:47 | 46.21566 | 14.47328 | 1204 ft | 37 kts | 306° |
| 2026-05-08 16:47 | 46.21890 | 14.46691 | 1219 ft | 117 kts | 307° |
| 2026-05-08 16:47 | 46.22502 | 14.45472 | 1311 ft | 171 kts | 307° |
| 2026-05-08 16:47 | 46.23229 | 14.44022 | 1919 ft | 187 kts | 308° |
| 2026-05-08 16:48 | 46.23991 | 14.42574 | 2851 ft | 182 kts | 308° |
| 2026-05-08 16:48 | 46.24785 | 14.41045 | 3203 ft | 203 kts | 307° |
| 2026-05-08 16:48 | 46.25253 | 14.39020 | 3540 ft | 225 kts | 273° |
| 2026-05-08 16:48 | 46.25302 | 14.36710 | 4095 ft | 239 kts | 272° |
| 2026-05-08 16:49 | 46.25348 | 14.34246 | 4621 ft | 256 kts | 271° |
| 2026-05-08 16:49 | 46.25397 | 14.31612 | 5292 ft | 265 kts | 271° |
| 2026-05-08 16:49 | 46.25442 | 14.29073 | 6449 ft | 250 kts | 271° |
| 2026-05-08 16:49 | 46.25485 | 14.26673 | 7480 ft | 233 kts | 271° |
| 2026-05-08 16:50 | 46.25522 | 14.24373 | 8281 ft | 233 kts | 271° |
| 2026-05-08 16:50 | 46.25565 | 14.21994 | 8887 ft | 240 kts | 271° |
| 2026-05-08 16:50 | 46.25608 | 14.19578 | 9436 ft | 243 kts | 271° |
| 2026-05-08 16:50 | 46.25652 | 14.17155 | 9959 ft | 244 kts | 271° |
| 2026-05-08 16:51 | 46.25693 | 14.14701 | 10476 ft | 245 kts | 271° |
| 2026-05-08 16:51 | 46.25858 | 14.12276 | 10963 ft | 247 kts | 291° |
| 2026-05-08 16:51 | 46.26838 | 14.10221 | 11521 ft | 253 kts | 313° |
| 2026-05-08 16:51 | 46.28067 | 14.08336 | 12066 ft | 262 kts | 313° |
| 2026-05-08 16:52 | 46.29334 | 14.06409 | 12595 ft | 269 kts | 313° |
| 2026-05-08 16:52 | 46.30634 | 14.04437 | 13122 ft | 277 kts | 313° |
| 2026-05-08 16:52 | 46.31974 | 14.02404 | 13601 ft | 286 kts | 313° |
| 2026-05-08 16:52 | 46.33383 | 14.00268 | 14102 ft | 295 kts | 313° |
| 2026-05-08 16:53 | 46.36265 | 13.95891 | 15113 ft | 310 kts | 313° |
| 2026-05-08 16:53 | 46.37769 | 13.93604 | 15635 ft | 316 kts | 313° |
| 2026-05-08 16:53 | 46.39296 | 13.91283 | 16169 ft | 322 kts | 313° |
| 2026-05-08 16:54 | 46.40842 | 13.88927 | 16709 ft | 327 kts | 313° |
| 2026-05-08 16:54 | 46.42429 | 13.86510 | 17255 ft | 332 kts | 313° |
| 2026-05-08 16:54 | 46.44025 | 13.84073 | 17811 ft | 336 kts | 313° |
| 2026-05-08 16:54 | 46.45628 | 13.81625 | 18360 ft | 339 kts | 312° |
| 2026-05-08 16:55 | 46.47270 | 13.79116 | 18930 ft | 342 kts | 312° |
| 2026-05-08 16:55 | 46.48896 | 13.76629 | 19493 ft | 344 kts | 312° |
| 2026-05-08 16:55 | 46.50552 | 13.74093 | 20068 ft | 346 kts | 311° |
| 2026-05-08 16:55 | 46.52174 | 13.71507 | 20637 ft | 346 kts | 303° |
| 2026-05-08 16:56 | 46.53417 | 13.68544 | 21230 ft | 345 kts | 298° |
| 2026-05-08 16:56 | 46.54604 | 13.65518 | 21806 ft | 346 kts | 297° |
| 2026-05-08 16:56 | 46.55790 | 13.62484 | 22381 ft | 347 kts | 297° |
| 2026-05-08 16:56 | 46.56993 | 13.59403 | 22967 ft | 347 kts | 297° |
| 2026-05-08 16:57 | 46.58176 | 13.56369 | 23545 ft | 347 kts | 297° |
| 2026-05-08 16:57 | 46.59355 | 13.53342 | 24140 ft | 347 kts | 297° |
| 2026-05-08 16:57 | 46.60550 | 13.50271 | 24748 ft | 346 kts | 296° |
| 2026-05-08 16:57 | 46.61731 | 13.47232 | 25369 ft | 345 kts | 296° |
| 2026-05-08 16:58 | 46.62915 | 13.44181 | 25964 ft | 344 kts | 296° |
| 2026-05-08 16:58 | 46.64079 | 13.41178 | 26566 ft | 343 kts | 296° |
| 2026-05-08 16:58 | 46.65253 | 13.38146 | 27146 ft | 341 kts | 295° |
| 2026-05-08 16:58 | 46.66411 | 13.35154 | 27731 ft | 339 kts | 295° |
| 2026-05-08 16:59 | 46.67558 | 13.32186 | 28324 ft | 337 kts | 295° |
| 2026-05-08 16:59 | 46.68704 | 13.29217 | 28910 ft | 335 kts | 294° |
| 2026-05-08 16:59 | 46.69848 | 13.26250 | 29503 ft | 332 kts | 294° |
| 2026-05-08 16:59 | 46.70989 | 13.23285 | 30102 ft | 330 kts | 294° |
| 2026-05-08 17:00 | 46.72103 | 13.20388 | 30679 ft | 327 kts | 294° |
| 2026-05-08 17:00 | 46.73204 | 13.17524 | 31257 ft | 323 kts | 294° |
| 2026-05-08 17:00 | 46.74309 | 13.14644 | 31831 ft | 320 kts | 293° |
| 2026-05-08 17:00 | 46.75388 | 13.11829 | 32387 ft | 316 kts | 292° |
| 2026-05-08 17:01 | 46.76446 | 13.09069 | 32933 ft | 311 kts | 292° |
| 2026-05-08 17:01 | 46.77489 | 13.06344 | 33475 ft | 306 kts | 292° |
| 2026-05-08 17:01 | 46.78520 | 13.03649 | 33997 ft | 303 kts | 291° |
| 2026-05-08 17:01 | 46.79553 | 13.00934 | 34064 ft | 314 kts | 292° |
| 2026-05-08 17:02 | 46.80632 | 12.98103 | 34101 ft | 326 kts | 292° |
| 2026-05-08 17:02 | 46.81765 | 12.95127 | 34114 ft | 340 kts | 292° |
| 2026-05-08 17:02 | 46.82937 | 12.92048 | 34098 ft | 354 kts | 292° |
| 2026-05-08 17:02 | 46.84170 | 12.88806 | 34103 ft | 367 kts | 293° |
| 2026-05-08 17:03 | 46.85430 | 12.85487 | 34066 ft | 381 kts | 293° |
| 2026-05-08 17:03 | 46.86737 | 12.82044 | 34075 ft | 394 kts | 293° |
| 2026-05-08 17:03 | 46.88081 | 12.78496 | 34070 ft | 406 kts | 294° |
| 2026-05-08 17:03 | 46.89487 | 12.74779 | 34082 ft | 419 kts | 293° |
| 2026-05-08 17:04 | 46.90918 | 12.70994 | 34073 ft | 431 kts | 294° |
| 2026-05-08 17:04 | 46.92393 | 12.67083 | 34074 ft | 442 kts | 294° |
| 2026-05-08 17:04 | 46.93900 | 12.63081 | 34071 ft | 453 kts | 294° |
| 2026-05-08 17:04 | 46.95404 | 12.59092 | 34080 ft | 442 kts | 294° |
| 2026-05-08 17:05 | 46.98357 | 12.51224 | 34100 ft | 435 kts | 294° |
| 2026-05-08 17:05 | 46.99772 | 12.47449 | 34355 ft | 420 kts | 293° |
| 2026-05-08 17:05 | 47.01174 | 12.43696 | 34669 ft | 420 kts | 293° |
| 2026-05-08 17:06 | 47.02576 | 12.39944 | 34949 ft | 421 kts | 293° |
| 2026-05-08 17:06 | 47.03983 | 12.36167 | 35119 ft | 420 kts | 294° |
| 2026-05-08 17:06 | 47.05388 | 12.32394 | 35287 ft | 420 kts | 293° |
| 2026-05-08 17:06 | 47.06780 | 12.28651 | 35442 ft | 419 kts | 293° |
| 2026-05-08 17:07 | 47.08172 | 12.24901 | 35593 ft | 418 kts | 293° |
| 2026-05-08 17:07 | 47.09562 | 12.21156 | 35748 ft | 417 kts | 294° |
| 2026-05-08 17:07 | 47.10941 | 12.17429 | 35882 ft | 418 kts | 294° |
| 2026-05-08 17:07 | 47.12332 | 12.13665 | 36023 ft | 420 kts | 294° |
| 2026-05-08 17:08 | 47.13728 | 12.09887 | 36346 ft | 419 kts | 294° |
| 2026-05-08 17:08 | 47.15104 | 12.06156 | 36968 ft | 417 kts | 294° |
| 2026-05-08 17:08 | 47.16478 | 12.02425 | 37259 ft | 415 kts | 295° |
| 2026-05-08 17:08 | 47.17857 | 11.98674 | 37572 ft | 412 kts | 295° |
| 2026-05-08 17:09 | 47.19218 | 11.94967 | 37886 ft | 409 kts | 295° |
| 2026-05-08 17:09 | 47.20558 | 11.91310 | 38192 ft | 405 kts | 295° |
| 2026-05-08 17:09 | 47.21875 | 11.87666 | 38498 ft | 401 kts | 294° |
| 2026-05-08 17:09 | 47.23156 | 11.84051 | 38841 ft | 397 kts | 295° |
| 2026-05-08 17:10 | 47.24428 | 11.80465 | 39216 ft | 393 kts | 295° |
| 2026-05-08 17:10 | 47.25685 | 11.76915 | 39575 ft | 388 kts | 295° |
| 2026-05-08 17:10 | 47.26925 | 11.73410 | 39935 ft | 383 kts | 295° |
| 2026-05-08 17:10 | 47.28159 | 11.69913 | 40082 ft | 385 kts | 295° |
| 2026-05-08 17:11 | 47.30636 | 11.62885 | 40114 ft | 394 kts | 295° |
| 2026-05-08 17:11 | 47.33196 | 11.55603 | 40111 ft | 403 kts | 295° |
| 2026-05-08 17:12 | 47.35793 | 11.48194 | 40099 ft | 413 kts | 295° |
| 2026-05-08 17:12 | 47.38472 | 11.40532 | 40100 ft | 422 kts | 295° |
| 2026-05-08 17:13 | 47.41178 | 11.32766 | 40091 ft | 431 kts | 294° |
| 2026-05-08 17:13 | 47.43945 | 11.24808 | 40080 ft | 436 kts | 295° |
| 2026-05-08 17:14 | 47.46726 | 11.16784 | 40094 ft | 436 kts | 295° |
| 2026-05-08 17:14 | 47.49473 | 11.08828 | 40108 ft | 434 kts | 295° |
| 2026-05-08 17:15 | 47.52227 | 11.00831 | 40116 ft | 435 kts | 295° |
| 2026-05-08 17:15 | 47.54966 | 10.92853 | 40116 ft | 434 kts | 295° |
| 2026-05-08 17:16 | 47.57717 | 10.84811 | 40104 ft | 436 kts | 295° |
| 2026-05-08 17:16 | 47.60471 | 10.76740 | 40093 ft | 436 kts | 295° |
| 2026-05-08 17:17 | 47.63198 | 10.68720 | 40093 ft | 436 kts | 295° |
| 2026-05-08 17:17 | 47.65931 | 10.60659 | 40085 ft | 436 kts | 295° |
| 2026-05-08 17:18 | 47.68675 | 10.52542 | 40084 ft | 434 kts | 295° |
| 2026-05-08 17:18 | 47.71387 | 10.44492 | 40080 ft | 436 kts | 295° |
| 2026-05-08 17:19 | 47.73769 | 10.36269 | 40086 ft | 432 kts | 283° |
| 2026-05-08 17:19 | 47.74382 | 10.27397 | 40083 ft | 430 kts | 268° |
| 2026-05-08 17:20 | 47.74207 | 10.18504 | 40069 ft | 429 kts | 267° |
| 2026-05-08 17:20 | 47.74003 | 10.09647 | 40068 ft | 430 kts | 267° |
| 2026-05-08 17:21 | 47.73786 | 10.00693 | 40063 ft | 430 kts | 267° |
| 2026-05-08 17:21 | 47.73566 | 9.91809 | 40060 ft | 431 kts | 267° |
| 2026-05-08 17:22 | 47.73338 | 9.82865 | 40059 ft | 431 kts | 267° |
| 2026-05-08 17:22 | 47.73104 | 9.73930 | 40060 ft | 431 kts | 267° |
| 2026-05-08 17:23 | 47.72839 | 9.66531 | 40054 ft | 430 kts | 262° |
| 2026-05-08 17:23 | 47.71614 | 9.56303 | 40049 ft | 430 kts | 260° |
| 2026-05-08 17:24 | 47.70537 | 9.47558 | 40043 ft | 430 kts | 260° |
| 2026-05-08 17:24 | 47.69459 | 9.38857 | 40038 ft | 430 kts | 260° |
| 2026-05-08 17:25 | 47.68366 | 9.30098 | 40041 ft | 430 kts | 259° |
| 2026-05-08 17:25 | 47.67271 | 9.21378 | 40046 ft | 431 kts | 259° |
| 2026-05-08 17:26 | 47.66164 | 9.12608 | 40043 ft | 430 kts | 259° |
| 2026-05-08 17:26 | 47.65055 | 9.03887 | 40048 ft | 431 kts | 259° |
| 2026-05-08 17:27 | 47.63948 | 8.95235 | 40044 ft | 429 kts | 259° |
| 2026-05-08 17:27 | 47.62841 | 8.86638 | 40045 ft | 430 kts | 259° |
| 2026-05-08 17:28 | 47.61711 | 8.77918 | 40043 ft | 429 kts | 259° |
| 2026-05-08 17:28 | 47.60580 | 8.69241 | 40042 ft | 429 kts | 259° |
| 2026-05-08 17:29 | 47.59447 | 8.60609 | 40037 ft | 429 kts | 259° |
| 2026-05-08 17:29 | 47.58307 | 8.51974 | 40032 ft | 428 kts | 259° |
| 2026-05-08 17:30 | 47.57154 | 8.43292 | 40036 ft | 428 kts | 260° |
| 2026-05-08 17:30 | 47.56000 | 8.34655 | 40038 ft | 429 kts | 259° |
| 2026-05-08 17:31 | 47.54836 | 8.25994 | 40038 ft | 429 kts | 259° |
| 2026-05-08 17:31 | 47.53672 | 8.17393 | 40033 ft | 428 kts | 259° |
| 2026-05-08 17:32 | 47.52497 | 8.08756 | 40029 ft | 428 kts | 259° |
| 2026-05-08 17:32 | 47.51323 | 8.00179 | 40027 ft | 426 kts | 259° |
| 2026-05-08 17:33 | 47.50141 | 7.91592 | 40030 ft | 426 kts | 259° |
| 2026-05-08 17:33 | 47.48958 | 7.83045 | 40029 ft | 426 kts | 259° |
| 2026-05-08 17:34 | 47.47761 | 7.74452 | 40020 ft | 425 kts | 259° |
| 2026-05-08 17:34 | 47.46576 | 7.65947 | 40019 ft | 426 kts | 261° |
| 2026-05-08 17:35 | 47.46028 | 7.57229 | 40024 ft | 426 kts | 265° |
| 2026-05-08 17:35 | 47.45472 | 7.48548 | 40031 ft | 425 kts | 265° |
| 2026-05-08 17:36 | 47.44896 | 7.39886 | 40033 ft | 426 kts | 265° |
| 2026-05-08 17:36 | 47.44307 | 7.31187 | 40030 ft | 425 kts | 264° |
| 2026-05-08 17:37 | 47.43717 | 7.22544 | 40033 ft | 423 kts | 264° |
| 2026-05-08 17:37 | 47.43122 | 7.13930 | 40024 ft | 424 kts | 264° |
| 2026-05-08 17:38 | 47.42518 | 7.05287 | 40047 ft | 422 kts | 264° |
| 2026-05-08 17:38 | 47.41906 | 6.96613 | 40024 ft | 423 kts | 264° |
| 2026-05-08 17:39 | 47.41289 | 6.87981 | 40033 ft | 424 kts | 264° |
| 2026-05-08 17:39 | 47.40669 | 6.79382 | 40044 ft | 424 kts | 264° |
| 2026-05-08 17:40 | 47.40036 | 6.70706 | 40020 ft | 423 kts | 264° |
| 2026-05-08 17:40 | 47.39403 | 6.62119 | 40023 ft | 424 kts | 264° |
| 2026-05-08 17:41 | 47.38755 | 6.53413 | 40026 ft | 424 kts | 264° |
| 2026-05-08 17:41 | 47.38104 | 6.44757 | 40019 ft | 423 kts | 265° |
| 2026-05-08 17:42 | 47.37442 | 6.36052 | 40020 ft | 424 kts | 265° |
| 2026-05-08 17:42 | 47.36780 | 6.27433 | 40007 ft | 423 kts | 264° |
| 2026-05-08 17:43 | 47.36115 | 6.18844 | 40026 ft | 426 kts | 264° |
| 2026-05-08 17:43 | 47.35438 | 6.10202 | 40020 ft | 424 kts | 264° |
| 2026-05-08 17:44 | 47.34752 | 6.01568 | 40024 ft | 424 kts | 264° |
| 2026-05-08 17:44 | 47.34034 | 5.92894 | 40032 ft | 423 kts | 264° |
| 2026-05-08 17:45 | 47.33313 | 5.84250 | 39985 ft | 423 kts | 264° |
| 2026-05-08 17:45 | 47.32632 | 5.75835 | 40005 ft | 404 kts | 264° |
| 2026-05-08 17:46 | 47.31965 | 5.67608 | 40028 ft | 405 kts | 264° |
| 2026-05-08 17:46 | 47.31289 | 5.59352 | 40017 ft | 405 kts | 264° |
| 2026-05-08 17:47 | 47.30615 | 5.51200 | 40003 ft | 391 kts | 264° |
| 2026-05-08 17:47 | 47.30287 | 5.47256 | 39858 ft | 383 kts | 265° |
| 2026-05-08 17:47 | 47.30190 | 5.44634 | 39714 ft | 391 kts | 272° |
| 2026-05-08 17:48 | 47.30682 | 5.39256 | 39217 ft | 404 kts | 285° |
| 2026-05-08 17:48 | 47.31652 | 5.35341 | 38616 ft | 405 kts | 295° |
| 2026-05-08 17:48 | 47.33087 | 5.31802 | 38026 ft | 403 kts | 305° |
| 2026-05-08 17:48 | 47.34961 | 5.28708 | 37447 ft | 401 kts | 315° |
| 2026-05-08 17:49 | 47.37173 | 5.26224 | 36810 ft | 400 kts | 325° |
| 2026-05-08 17:49 | 47.39615 | 5.24430 | 36200 ft | 402 kts | 335° |
| 2026-05-08 17:49 | 47.42254 | 5.23059 | 35692 ft | 401 kts | 333° |
| 2026-05-08 17:49 | 47.44759 | 5.21336 | 35183 ft | 400 kts | 328° |
| 2026-05-08 17:50 | 47.47243 | 5.19406 | 34664 ft | 399 kts | 327° |
| 2026-05-08 17:50 | 47.49661 | 5.17455 | 34072 ft | 398 kts | 326° |
| 2026-05-08 17:50 | 47.52104 | 5.15456 | 33433 ft | 398 kts | 326° |
| 2026-05-08 17:50 | 47.54515 | 5.13473 | 32729 ft | 401 kts | 327° |
| 2026-05-08 17:51 | 47.56981 | 5.11440 | 31454 ft | 409 kts | 327° |
| 2026-05-08 17:51 | 47.59339 | 5.09253 | 30976 ft | 392 kts | 320° |
| 2026-05-08 17:51 | 47.61423 | 5.06700 | 30532 ft | 382 kts | 317° |
| 2026-05-08 17:51 | 47.63442 | 5.04170 | 30117 ft | 383 kts | 317° |
| 2026-05-08 17:52 | 47.65503 | 5.01586 | 29704 ft | 383 kts | 317° |
| 2026-05-08 17:52 | 47.67542 | 4.99026 | 29275 ft | 382 kts | 317° |
| 2026-05-08 17:52 | 47.71577 | 4.93952 | 28429 ft | 380 kts | 317° |
| 2026-05-08 17:53 | 47.73597 | 4.91408 | 28006 ft | 377 kts | 317° |
| 2026-05-08 17:53 | 47.77595 | 4.86348 | 28004 ft | 378 kts | 317° |
| 2026-05-08 17:54 | 47.81620 | 4.81241 | 27987 ft | 379 kts | 317° |
| 2026-05-08 17:54 | 47.83626 | 4.78692 | 27976 ft | 378 kts | 317° |
| 2026-05-08 17:54 | 47.85628 | 4.76144 | 27971 ft | 379 kts | 317° |
| 2026-05-08 17:54 | 47.87641 | 4.73581 | 27973 ft | 377 kts | 317° |
| 2026-05-08 17:55 | 47.88947 | 4.71917 | 27956 ft | 376 kts | 317° |
| 2026-05-08 17:55 | 47.91627 | 4.68492 | 27954 ft | 377 kts | 317° |
| 2026-05-08 17:55 | 47.93603 | 4.65965 | 27944 ft | 375 kts | 317° |
| 2026-05-08 17:55 | 47.95610 | 4.63403 | 27948 ft | 375 kts | 317° |
| 2026-05-08 17:56 | 47.97585 | 4.60877 | 27934 ft | 376 kts | 317° |
| 2026-05-08 17:56 | 47.99614 | 4.58277 | 27678 ft | 377 kts | 317° |
| 2026-05-08 17:56 | 48.01592 | 4.55739 | 27267 ft | 374 kts | 317° |
| 2026-05-08 17:56 | 48.03561 | 4.53214 | 26861 ft | 373 kts | 317° |
| 2026-05-08 17:57 | 48.05518 | 4.50697 | 26456 ft | 372 kts | 317° |
| 2026-05-08 17:57 | 48.07493 | 4.48154 | 26041 ft | 370 kts | 317° |
| 2026-05-08 17:57 | 48.09443 | 4.45641 | 25637 ft | 369 kts | 317° |
| 2026-05-08 17:57 | 48.11398 | 4.43121 | 25240 ft | 368 kts | 317° |
| 2026-05-08 17:58 | 48.13320 | 4.40638 | 24827 ft | 369 kts | 317° |
| 2026-05-08 17:58 | 48.15263 | 4.38129 | 24400 ft | 365 kts | 317° |
| 2026-05-08 17:58 | 48.17179 | 4.35650 | 23975 ft | 363 kts | 317° |
| 2026-05-08 17:58 | 48.19092 | 4.33172 | 23603 ft | 362 kts | 317° |
| 2026-05-08 17:59 | 48.21004 | 4.30694 | 23234 ft | 362 kts | 317° |
| 2026-05-08 17:59 | 48.22905 | 4.28227 | 22813 ft | 362 kts | 317° |
| 2026-05-08 17:59 | 48.24813 | 4.25748 | 22393 ft | 361 kts | 317° |
| 2026-05-08 17:59 | 48.26613 | 4.23171 | 22006 ft | 355 kts | 309° |
| 2026-05-08 18:00 | 48.27674 | 4.21263 | 21773 ft | 355 kts | 308° |
| 2026-05-08 18:00 | 48.31347 | 4.14579 | 20834 ft | 355 kts | 308° |
| 2026-05-08 18:00 | 48.32923 | 4.11706 | 20428 ft | 353 kts | 308° |
| 2026-05-08 18:01 | 48.34473 | 4.08878 | 20057 ft | 352 kts | 308° |
| 2026-05-08 18:01 | 48.36016 | 4.06059 | 20066 ft | 349 kts | 308° |
| 2026-05-08 18:01 | 48.37576 | 4.03207 | 20029 ft | 353 kts | 308° |
| 2026-05-08 18:01 | 48.39145 | 4.00335 | 19673 ft | 355 kts | 308° |
| 2026-05-08 18:02 | 48.40725 | 3.97441 | 19310 ft | 354 kts | 307° |
| 2026-05-08 18:02 | 48.41749 | 3.95564 | 19051 ft | 352 kts | 308° |
| 2026-05-08 18:02 | 48.43823 | 3.91757 | 18524 ft | 351 kts | 307° |
| 2026-05-08 18:02 | 48.45365 | 3.88923 | 18139 ft | 350 kts | 307° |
| 2026-05-08 18:03 | 48.46923 | 3.86056 | 17744 ft | 349 kts | 307° |
| 2026-05-08 18:03 | 48.48443 | 3.83256 | 17362 ft | 347 kts | 307° |
| 2026-05-08 18:03 | 48.49974 | 3.80434 | 16977 ft | 345 kts | 307° |
| 2026-05-08 18:03 | 48.51488 | 3.77639 | 16592 ft | 344 kts | 307° |
| 2026-05-08 18:04 | 48.52998 | 3.74851 | 16213 ft | 343 kts | 307° |
| 2026-05-08 18:04 | 48.54411 | 3.71983 | 15922 ft | 338 kts | 301° |
| 2026-05-08 18:04 | 48.55703 | 3.68989 | 15948 ft | 338 kts | 301° |
| 2026-05-08 18:04 | 48.56983 | 3.66018 | 15952 ft | 341 kts | 301° |
| 2026-05-08 18:05 | 48.58277 | 3.63008 | 15796 ft | 342 kts | 301° |
| 2026-05-08 18:05 | 48.59569 | 3.60001 | 15443 ft | 341 kts | 301° |
| 2026-05-08 18:05 | 48.60844 | 3.57029 | 15076 ft | 338 kts | 301° |
| 2026-05-08 18:05 | 48.62126 | 3.54040 | 15034 ft | 334 kts | 301° |
| 2026-05-08 18:06 | 48.63387 | 3.51096 | 15026 ft | 336 kts | 301° |
| 2026-05-08 18:06 | 48.64658 | 3.48123 | 15026 ft | 337 kts | 301° |
| 2026-05-08 18:06 | 48.65923 | 3.45163 | 15025 ft | 338 kts | 301° |
| 2026-05-08 18:06 | 48.67209 | 3.42152 | 15027 ft | 339 kts | 301° |
| 2026-05-08 18:07 | 48.68465 | 3.39203 | 15024 ft | 337 kts | 301° |
| 2026-05-08 18:07 | 48.69740 | 3.36212 | 15023 ft | 338 kts | 301° |
| 2026-05-08 18:07 | 48.71028 | 3.33184 | 15023 ft | 338 kts | 301° |
| 2026-05-08 18:07 | 48.72300 | 3.30191 | 15025 ft | 338 kts | 301° |
| 2026-05-08 18:08 | 48.73564 | 3.27212 | 15027 ft | 339 kts | 301° |
| 2026-05-08 18:08 | 48.74862 | 3.24149 | 15027 ft | 339 kts | 301° |
| 2026-05-08 18:08 | 48.76132 | 3.21153 | 15029 ft | 339 kts | 301° |
| 2026-05-08 18:08 | 48.77416 | 3.18117 | 15029 ft | 340 kts | 301° |
| 2026-05-08 18:09 | 48.78677 | 3.15133 | 15027 ft | 339 kts | 301° |
| 2026-05-08 18:09 | 48.79948 | 3.12121 | 15027 ft | 339 kts | 301° |
| 2026-05-08 18:09 | 48.81223 | 3.09097 | 15028 ft | 339 kts | 301° |
| 2026-05-08 18:09 | 48.82492 | 3.06083 | 15027 ft | 340 kts | 301° |
| 2026-05-08 18:10 | 48.83759 | 3.03072 | 15028 ft | 339 kts | 301° |
| 2026-05-08 18:10 | 48.85186 | 3.00196 | 15030 ft | 341 kts | 310° |
| 2026-05-08 18:10 | 48.86783 | 2.97551 | 15033 ft | 342 kts | 311° |
| 2026-05-08 18:10 | 48.88386 | 2.94895 | 15036 ft | 341 kts | 311° |
| 2026-05-08 18:11 | 48.89992 | 2.92230 | 15025 ft | 341 kts | 311° |
| 2026-05-08 18:11 | 48.91593 | 2.89569 | 14986 ft | 342 kts | 311° |
| 2026-05-08 18:11 | 48.93032 | 2.86716 | 14648 ft | 339 kts | 294° |
| 2026-05-08 18:11 | 48.93535 | 2.83317 | 14298 ft | 333 kts | 269° |
| 2026-05-08 18:12 | 48.93420 | 2.79794 | 13898 ft | 330 kts | 266° |
| 2026-05-08 18:12 | 48.93257 | 2.76311 | 13552 ft | 330 kts | 265° |
| 2026-05-08 18:12 | 48.93083 | 2.72874 | 13175 ft | 328 kts | 265° |
| 2026-05-08 18:12 | 48.92905 | 2.69455 | 12823 ft | 325 kts | 265° |
| 2026-05-08 18:13 | 48.92723 | 2.66019 | 12469 ft | 324 kts | 265° |
| 2026-05-08 18:13 | 48.92541 | 2.62610 | 12112 ft | 324 kts | 265° |
| 2026-05-08 18:13 | 48.92357 | 2.59191 | 11752 ft | 322 kts | 265° |
| 2026-05-08 18:13 | 48.92175 | 2.55853 | 11396 ft | 316 kts | 265° |
| 2026-05-08 18:14 | 48.91994 | 2.52536 | 11046 ft | 308 kts | 265° |
| 2026-05-08 18:14 | 48.91820 | 2.49350 | 10708 ft | 300 kts | 265° |
| 2026-05-08 18:14 | 48.91645 | 2.46188 | 10379 ft | 294 kts | 265° |
| 2026-05-08 18:14 | 48.91476 | 2.43155 | 10060 ft | 287 kts | 266° |
| 2026-05-08 18:15 | 48.91309 | 2.40151 | 9747 ft | 284 kts | 266° |
| 2026-05-08 18:15 | 48.91144 | 2.37189 | 9440 ft | 282 kts | 266° |
| 2026-05-08 18:15 | 48.90976 | 2.34202 | 9128 ft | 284 kts | 265° |
| 2026-05-08 18:15 | 48.90807 | 2.31225 | 8814 ft | 278 kts | 265° |
| 2026-05-08 18:16 | 48.90646 | 2.28367 | 8506 ft | 270 kts | 265° |
| 2026-05-08 18:16 | 48.90486 | 2.25572 | 8212 ft | 262 kts | 265° |
| 2026-05-08 18:16 | 48.90330 | 2.22837 | 7921 ft | 256 kts | 265° |
| 2026-05-08 18:16 | 48.90175 | 2.20145 | 7641 ft | 249 kts | 264° |
| 2026-05-08 18:17 | 48.90028 | 2.17545 | 7394 ft | 242 kts | 266° |
| 2026-05-08 18:17 | 48.90410 | 2.15173 | 7171 ft | 231 kts | 304° |
| 2026-05-08 18:17 | 48.91631 | 2.13777 | 6831 ft | 224 kts | 343° |
| 2026-05-08 18:17 | 48.93127 | 2.13623 | 6511 ft | 209 kts | 2° |
| 2026-05-08 18:18 | 48.94555 | 2.13733 | 6150 ft | 201 kts | 5° |
| 2026-05-08 18:18 | 48.95896 | 2.14010 | 5861 ft | 192 kts | 22° |
| 2026-05-08 18:18 | 48.96817 | 2.15355 | 5625 ft | 187 kts | 66° |
| 2026-05-08 18:18 | 48.97055 | 2.17293 | 5419 ft | 188 kts | 83° |
| 2026-05-08 18:19 | 48.97190 | 2.19256 | 5180 ft | 186 kts | 84° |
| 2026-05-08 18:19 | 48.97316 | 2.21231 | 4928 ft | 186 kts | 84° |
| 2026-05-08 18:19 | 48.97434 | 2.23177 | 4676 ft | 186 kts | 84° |
| 2026-05-08 18:19 | 48.97549 | 2.25138 | 4418 ft | 185 kts | 84° |
| 2026-05-08 18:20 | 48.97661 | 2.27059 | 4166 ft | 184 kts | 84° |
| 2026-05-08 18:20 | 48.97769 | 2.28963 | 3910 ft | 179 kts | 84° |
| 2026-05-08 18:20 | 48.97876 | 2.30838 | 3662 ft | 176 kts | 83° |
| 2026-05-08 18:20 | 48.97980 | 2.32691 | 3420 ft | 176 kts | 83° |
| 2026-05-08 18:21 | 48.98084 | 2.34543 | 3180 ft | 175 kts | 83° |
| 2026-05-08 18:21 | 48.98188 | 2.36388 | 2941 ft | 175 kts | 83° |
| 2026-05-08 18:21 | 48.98290 | 2.38231 | 2700 ft | 174 kts | 83° |
| 2026-05-08 18:21 | 48.98390 | 2.40036 | 2466 ft | 173 kts | 83° |
| 2026-05-08 18:22 | 48.98491 | 2.41854 | 2232 ft | 171 kts | 82° |
| 2026-05-08 18:22 | 48.98590 | 2.43645 | 2001 ft | 169 kts | 83° |
| 2026-05-08 18:22 | 48.98682 | 2.45330 | 1763 ft | 149 kts | 83° |
| 2026-05-08 18:22 | 48.98762 | 2.46793 | 1559 ft | 127 kts | 81° |
| 2026-05-08 18:23 | 48.98832 | 2.48079 | 1396 ft | 121 kts | 81° |
| 2026-05-08 18:23 | 48.98903 | 2.49352 | 1258 ft | 122 kts | 82° |
| 2026-05-08 18:23 | 48.98974 | 2.50660 | 1105 ft | 124 kts | 82° |
| 2026-05-08 18:23 | 48.99044 | 2.51965 | 942 ft | 126 kts | 82° |
| 2026-05-08 18:24 | 48.99117 | 2.53296 | 776 ft | 124 kts | 83° |
| 2026-05-08 18:24 | 48.99191 | 2.54606 | 606 ft | 123 kts | 81° |
| 2026-05-08 18:24 | 48.99265 | 2.55930 | 467 ft | 126 kts | 83° |
| 2026-05-08 18:24 | 48.99327 | 2.57248 | 346 ft | 125 kts | 83° |
| 2026-05-08 18:25 | 48.99387 | 2.58379 | 321 ft | 81 kts | 85° |
| 2026-05-08 18:25 | 48.99421 | 2.58973 | 320 ft | 39 kts | 80° |
| 2026-05-08 18:25 | 48.99455 | 2.59223 | 320 ft | 14 kts | 67° |
| 2026-05-08 18:25 | 48.99498 | 2.59366 | 320 ft | 14 kts | 71° |
| 2026-05-08 18:26 | 48.99540 | 2.59500 | 320 ft | 13 kts | 65° |
| 2026-05-08 18:26 | 48.99578 | 2.59629 | 320 ft | 13 kts | 63° |
| 2026-05-08 18:26 | 48.99660 | 2.59695 | 320 ft | 14 kts | 357° |
| 2026-05-08 18:26 | 48.99754 | 2.59684 | 321 ft | 12 kts | 354° |
| 2026-05-08 18:27 | 48.99839 | 2.59673 | 323 ft | 11 kts | 355° |
| 2026-05-08 18:27 | 48.99867 | 2.59670 | 323 ft | 12 kts | 354° |
| 2026-05-08 18:27 | 49.00011 | 2.59654 | 323 ft | 12 kts | 355° |
| 2026-05-08 18:27 | 49.00095 | 2.59642 | 325 ft | 11 kts | 354° |
| 2026-05-08 18:28 | 49.00177 | 2.59631 | 326 ft | 12 kts | 354° |
| 2026-05-08 18:28 | 49.00271 | 2.59620 | 326 ft | 14 kts | 355° |
| 2026-05-08 18:28 | 49.00375 | 2.59606 | 327 ft | 15 kts | 355° |
| 2026-05-08 18:28 | 49.00480 | 2.59591 | 329 ft | 15 kts | 353° |
| 2026-05-08 18:29 | 49.00595 | 2.59577 | 329 ft | 19 kts | 357° |
| 2026-05-08 18:29 | 49.00745 | 2.59560 | 330 ft | 21 kts | 355° |
| 2026-05-08 18:29 | 49.00890 | 2.59543 | 333 ft | 20 kts | 355° |
| 2026-05-08 18:29 | 49.01001 | 2.59461 | 333 ft | 18 kts | 276° |
| 2026-05-08 18:30 | 49.00992 | 2.59261 | 333 ft | 19 kts | 265° |
| 2026-05-08 18:30 | 49.00975 | 2.59056 | 333 ft | 19 kts | 255° |
| 2026-05-08 18:30 | 49.00948 | 2.58858 | 335 ft | 18 kts | 264° |
| 2026-05-08 18:30 | 49.00937 | 2.58657 | 335 ft | 19 kts | 264° |
| 2026-05-08 18:31 | 49.00925 | 2.58449 | 334 ft | 20 kts | 265° |
| 2026-05-08 18:31 | 49.00914 | 2.58231 | 334 ft | 20 kts | 263° |
| 2026-05-08 18:31 | 49.00900 | 2.58031 | 336 ft | 17 kts | 265° |
| 2026-05-08 18:31 | 49.00898 | 2.57970 | 336 ft | 1 kts | 269° |
| 2026-05-08 18:32 | 49.00898 | 2.57943 | 336 ft | 3 kts | 269° |
| 2026-05-08 18:32 | 49.00894 | 2.57876 | 336 ft | 9 kts | 264° |
| 2026-05-08 18:32 | 49.00868 | 2.57749 | 336 ft | 13 kts | 216° |
| 2026-05-08 18:32 | 49.00795 | 2.57704 | 335 ft | 11 kts | 208° |
| 2026-05-08 18:33 | 49.00744 | 2.57639 | 334 ft | 8 kts | 226° |
| 2026-05-08 18:33 | 49.00707 | 2.57584 | 333 ft | 4 kts | 223° |
| 2026-05-08 18:33 | 49.00694 | 2.57565 | 333 ft | 0 kts | 223° |